Time;durP1;ratioP1;P1;durP2;ratioP2;P2;SDS_P1;SDS_P2;PMS_P1;PMS_P2;Temp;Humidity;BMP_temperature;BMP_pressure;BME280_temperature;BME280_humidity;BME280_pressure;Samples;Min_cycle;Max_cycle;Signal;HPM_P1;HPM_P2
2021/12/25 00:02:10;;;;;;;13.53;10.47;;;3.80;99.90;;;;;;4894508;29;20828;-88
2021/12/25 00:04:37;;;;;;;16.43;10.37;;;3.80;99.90;;;;;;4893900;29;20229;-86
2021/12/25 00:07:06;;;;;;;13.57;10.10;;;3.80;99.90;;;;;;4895534;29;20207;-87
2021/12/25 00:09:33;;;;;;;15.77;10.83;;;3.90;99.90;;;;;;4903292;29;20297;-86
2021/12/25 00:12:00;;;;;;;17.63;11.07;;;3.80;99.90;;;;;;4912985;29;20199;-85
2021/12/25 00:14:27;;;;;;;14.37;9.73;;;3.90;99.90;;;;;;4913373;29;20199;-89
2021/12/25 00:16:58;;;;;;;17.10;11.40;;;3.90;99.90;;;;;;4913823;29;20234;-82
2021/12/25 00:19:25;;;;;;;17.03;11.70;;;3.80;99.90;;;;;;4912926;29;20210;-84
2021/12/25 00:21:52;;;;;;;19.90;12.47;;;3.80;99.90;;;;;;4895967;29;20215;-88
2021/12/25 00:24:19;;;;;;;24.03;12.20;;;3.70;99.90;;;;;;4895053;29;20207;-90
2021/12/25 00:26:54;;;;;;;20.47;12.83;;;3.70;99.90;;;;;;4895142;29;20259;-88
2021/12/25 00:29:35;;;;;;;18.77;12.33;;;3.70;99.90;;;;;;4895232;29;20215;-90
2021/12/25 00:32:15;;;;;;;19.33;13.17;;;3.70;99.90;;;;;;4894723;29;20246;-86
2021/12/25 00:34:42;;;;;;;18.17;12.63;;;3.80;99.90;;;;;;4894328;29;20203;-87
2021/12/25 00:37:10;;;;;;;18.03;12.57;;;3.80;99.90;;;;;;4895234;29;20199;-87
2021/12/25 00:39:37;;;;;;;19.10;12.30;;;3.80;99.90;;;;;;4938304;29;20217;-89
2021/12/25 00:42:06;;;;;;;20.77;13.20;;;3.80;99.90;;;;;;4953984;29;20220;-88
2021/12/25 00:44:33;;;;;;;19.73;12.40;;;3.70;99.90;;;;;;4953599;28;20225;-84
2021/12/25 00:47:01;;;;;;;22.43;13.93;;;3.70;99.90;;;;;;4953811;29;20209;-87
2021/12/25 00:49:29;;;;;;;17.27;13.70;;;3.70;99.90;;;;;;4953918;29;20211;-87
2021/12/25 00:51:57;;;;;;;22.73;13.50;;;3.70;99.90;;;;;;4953205;28;20214;-86
2021/12/25 00:54:25;;;;;;;19.83;12.70;;;3.70;99.90;;;;;;4953773;29;20225;-88
2021/12/25 00:56:52;;;;;;;22.63;14.20;;;3.70;99.90;;;;;;4953469;29;20218;-88
2021/12/25 00:59:18;;;;;;;21.20;13.97;;;3.70;99.90;;;;;;4948739;29;20198;-89
2021/12/25 01:01:45;;;;;;;20.80;13.40;;;3.70;99.90;;;;;;4934287;29;20623;-89
2021/12/25 01:04:13;;;;;;;19.37;13.63;;;3.70;99.90;;;;;;4933652;29;20596;-89
2021/12/25 01:06:41;;;;;;;22.03;14.70;;;3.70;99.90;;;;;;4933946;29;20224;-84
2021/12/25 01:09:08;;;;;;;20.50;13.67;;;3.70;99.90;;;;;;4932339;29;20198;-85
2021/12/25 01:11:36;;;;;;;21.00;14.07;;;3.60;99.90;;;;;;4931024;29;20217;-88
2021/12/25 01:14:10;;;;;;;22.10;14.43;;;3.60;99.90;;;;;;4935125;29;20253;-82
2021/12/25 01:22:40;;;;;;;21.80;14.17;;;3.60;99.90;;;;;;4915561;29;20208;-90
2021/12/25 01:25:28;;;;;;;18.50;13.80;;;3.60;99.90;;;;;;4934900;29;20779;-86
2021/12/25 01:30:47;;;;;;;21.40;14.00;;;3.50;99.90;;;;;;4933887;29;20214;-89
2021/12/25 01:33:32;;;;;;;21.00;14.07;;;3.50;99.90;;;;;;4934856;29;20238;-87
2021/12/25 01:38:57;;;;;;;23.63;13.73;;;3.60;99.90;;;;;;4950138;29;20281;-83
2021/12/25 01:41:53;;;;;;;21.23;13.87;;;3.50;99.90;;;;;;4953371;29;20598;-90
2021/12/25 01:50:01;;;;;;;21.47;12.73;;;3.50;99.90;;;;;;4870479;29;20203;-87
2021/12/25 01:52:30;;;;;;;20.83;12.83;;;3.50;99.90;;;;;;4875130;29;20211;-86
2021/12/25 01:55:00;;;;;;;18.90;12.47;;;3.50;99.90;;;;;;4901776;29;20239;-90
2021/12/25 01:57:28;;;;;;;15.77;11.10;;;3.40;99.90;;;;;;4937680;29;20272;-88
2021/12/25 01:59:55;;;;;;;16.67;11.67;;;3.40;99.90;;;;;;4952486;29;20233;-86
2021/12/25 02:02:23;;;;;;;17.43;11.17;;;3.30;99.90;;;;;;4952858;29;20257;-88
2021/12/25 02:04:50;;;;;;;17.57;12.33;;;3.30;99.90;;;;;;4951217;28;20212;-86
2021/12/25 02:07:18;;;;;;;21.53;10.93;;;3.20;99.90;;;;;;4952414;29;20213;-87
2021/12/25 02:09:46;;;;;;;18.40;12.00;;;3.20;99.90;;;;;;4952839;29;20205;-87
2021/12/25 02:12:15;;;;;;;20.10;11.97;;;3.20;99.90;;;;;;4953037;29;20217;-90
2021/12/25 02:14:45;;;;;;;21.07;12.90;;;3.10;99.90;;;;;;4937379;29;20505;-89
2021/12/25 02:17:15;;;;;;;21.10;12.27;;;3.10;99.90;;;;;;4935744;29;20249;-86
2021/12/25 02:19:50;;;;;;;18.30;11.93;;;3.10;99.90;;;;;;4933528;29;20662;-85
2021/12/25 02:22:18;;;;;;;18.03;11.93;;;3.10;99.90;;;;;;4932313;29;20854;-84
2021/12/25 02:24:45;;;;;;;18.93;11.90;;;3.10;99.90;;;;;;4932077;29;20226;-87
2021/12/25 02:27:12;;;;;;;19.00;12.17;;;3.00;99.90;;;;;;4945912;29;20212;-87
2021/12/25 02:29:39;;;;;;;15.80;10.70;;;3.00;99.90;;;;;;4952655;29;20593;-84
2021/12/25 02:32:06;;;;;;;20.87;13.53;;;3.00;99.90;;;;;;4951674;29;20248;-81
2021/12/25 02:34:33;;;;;;;17.33;11.27;;;3.00;99.90;;;;;;4952541;29;20237;-86
2021/12/25 02:37:01;;;;;;;16.80;10.90;;;3.00;99.90;;;;;;4952266;29;20216;-88
2021/12/25 02:39:28;;;;;;;19.07;11.00;;;2.90;99.90;;;;;;4951054;29;20201;-88
2021/12/25 02:41:55;;;;;;;19.23;12.10;;;2.90;99.90;;;;;;4949929;29;20244;-84
2021/12/25 02:44:22;;;;;;;15.67;10.63;;;2.90;99.90;;;;;;4949204;28;20241;-87
2021/12/25 02:46:53;;;;;;;17.13;11.27;;;2.80;99.90;;;;;;4952663;29;20208;-89
2021/12/25 02:49:20;;;;;;;17.10;10.63;;;2.80;99.90;;;;;;4936747;29;20245;-85
2021/12/25 02:51:48;;;;;;;17.80;10.90;;;2.80;99.90;;;;;;4933524;29;20236;-87
2021/12/25 02:54:16;;;;;;;17.33;10.77;;;2.70;99.90;;;;;;4932482;29;20222;-87
2021/12/25 02:56:43;;;;;;;17.77;10.50;;;2.60;99.90;;;;;;4933418;29;20210;-89
2021/12/25 02:59:13;;;;;;;15.00;10.10;;;2.60;99.90;;;;;;4932910;29;20213;-85
2021/12/25 03:01:40;;;;;;;15.77;11.23;;;2.70;99.90;;;;;;4933080;29;20214;-82
2021/12/25 03:04:07;;;;;;;18.10;11.30;;;2.60;99.90;;;;;;4933542;29;20206;-89
2021/12/25 03:06:35;;;;;;;14.93;9.93;;;2.60;99.90;;;;;;4933413;29;20220;-87
2021/12/25 03:09:03;;;;;;;18.63;10.00;;;2.60;99.90;;;;;;4933561;29;20220;-89
2021/12/25 03:11:31;;;;;;;16.70;10.53;;;2.50;99.90;;;;;;4933491;29;20202;-87
2021/12/25 03:14:10;;;;;;;15.67;10.27;;;2.50;99.90;;;;;;4933067;29;20222;-87
2021/12/25 03:16:37;;;;;;;17.80;10.03;;;2.50;99.90;;;;;;4936523;29;20209;-88
2021/12/25 03:19:08;;;;;;;16.07;9.83;;;2.50;99.90;;;;;;4937027;29;20208;-88
2021/12/25 03:21:35;;;;;;;16.20;9.33;;;2.50;99.90;;;;;;4936571;29;20206;-88
2021/12/25 03:24:02;;;;;;;16.00;8.70;;;2.50;99.90;;;;;;4936672;29;20522;-85
2021/12/25 03:26:29;;;;;;;17.40;8.57;;;2.50;99.90;;;;;;4936543;29;20220;-84
2021/12/25 03:28:59;;;;;;;11.87;8.10;;;2.40;99.90;;;;;;4936964;29;20213;-90
2021/12/25 03:31:26;;;;;;;14.30;8.63;;;2.40;99.90;;;;;;4936190;29;20249;-82
2021/12/25 03:33:55;;;;;;;15.37;8.77;;;2.40;99.90;;;;;;4935911;29;20755;-86
2021/12/25 03:36:22;;;;;;;13.30;7.67;;;2.40;99.90;;;;;;4954446;29;20245;-84
2021/12/25 03:38:50;;;;;;;18.63;8.47;;;2.30;99.90;;;;;;4955033;29;20225;-88
2021/12/25 03:41:18;;;;;;;13.90;7.50;;;2.30;99.90;;;;;;4954805;29;20863;-87
2021/12/25 03:43:45;;;;;;;14.63;7.27;;;2.30;99.90;;;;;;4951734;28;20234;-80
2021/12/25 03:46:15;;;;;;;11.80;7.77;;;2.30;99.90;;;;;;4935603;29;20403;-84
2021/12/25 03:49:25;;;;;;;10.80;6.93;;;2.30;99.90;;;;;;4948817;29;20260;-82
2021/12/25 03:57:40;;;;;;;12.63;6.17;;;2.10;99.90;;;;;;4953524;29;20204;-87
2021/12/25 04:00:13;;;;;;;10.73;6.80;;;2.10;99.90;;;;;;4954214;29;20219;-88
2021/12/25 04:02:52;;;;;;;10.63;6.20;;;2.10;99.90;;;;;;4953949;29;20653;-87
2021/12/25 04:05:25;;;;;;;13.67;6.23;;;2.10;99.90;;;;;;4950506;29;20205;-88
2021/12/25 04:08:04;;;;;;;12.60;7.17;;;2.10;99.90;;;;;;4935533;29;20206;-85
2021/12/25 04:10:35;;;;;;;14.27;6.50;;;2.10;99.90;;;;;;4934188;29;20210;-87
2021/12/25 04:13:02;;;;;;;9.30;5.30;;;2.00;99.90;;;;;;4934876;29;20210;-84
2021/12/25 04:15:29;;;;;;;8.17;5.50;;;2.00;99.90;;;;;;4934920;29;20234;-87
2021/12/25 04:17:57;;;;;;;10.00;5.70;;;1.90;99.90;;;;;;4933176;29;20206;-88
2021/12/25 04:20:24;;;;;;;7.90;5.20;;;1.90;99.90;;;;;;4935332;29;20208;-90
2021/12/25 04:22:57;;;;;;;11.50;6.37;;;1.90;99.90;;;;;;4936240;29;20241;-90
2021/12/25 04:25:27;;;;;;;11.90;5.20;;;1.90;99.90;;;;;;4935644;29;20760;-88
2021/12/25 04:27:56;;;;;;;9.07;5.00;;;1.80;99.90;;;;;;4935672;29;20296;-89
2021/12/25 04:30:32;;;;;;;7.63;4.33;;;1.80;99.90;;;;;;4935743;29;20509;-87
2021/12/25 04:50:00;;;;;;;7.23;3.23;;;1.50;99.90;;;;;;4953971;29;20204;-84
2021/12/25 05:03:38;;;;;;;3.63;2.30;;;1.30;99.90;;;;;;4942756;29;20240;-88
2021/12/25 05:06:06;;;;;;;6.13;2.57;;;1.30;99.90;;;;;;4953618;29;20201;-89
2021/12/25 05:08:33;;;;;;;8.77;2.87;;;1.30;99.90;;;;;;4947538;29;20210;-87
2021/12/25 05:11:00;;;;;;;6.97;2.30;;;1.20;99.90;;;;;;4934467;29;20244;-89
2021/12/25 05:13:27;;;;;;;6.03;2.53;;;1.20;99.90;;;;;;4934216;29;20587;-83
2021/12/25 05:15:54;;;;;;;5.27;2.40;;;1.20;99.90;;;;;;4934516;29;20194;-90
2021/12/25 05:18:21;;;;;;;3.87;2.30;;;1.20;99.90;;;;;;4934307;29;20193;-84
2021/12/25 05:20:48;;;;;;;5.00;3.07;;;1.20;99.90;;;;;;4933853;29;20300;-87
2021/12/25 05:23:16;;;;;;;3.87;2.27;;;1.10;99.90;;;;;;4951569;29;20220;-87
2021/12/25 05:25:43;;;;;;;6.47;2.77;;;1.10;99.90;;;;;;4953456;29;20216;-89
2021/12/25 05:28:12;;;;;;;3.90;2.43;;;1.10;99.90;;;;;;4952811;29;20214;-85
2021/12/25 05:30:40;;;;;;;4.40;2.17;;;1.00;99.90;;;;;;4951694;29;20669;-83
2021/12/25 05:33:08;;;;;;;6.83;2.17;;;1.00;99.90;;;;;;4952505;29;20237;-82
2021/12/25 05:35:35;;;;;;;8.30;1.90;;;1.00;99.90;;;;;;4952216;29;20237;-88
2021/12/25 05:38:02;;;;;;;4.43;2.30;;;1.00;99.90;;;;;;4952718;28;20205;-87
2021/12/25 05:40:30;;;;;;;2.97;1.83;;;0.90;99.90;;;;;;4940218;29;20218;-82
2021/12/25 05:42:57;;;;;;;4.47;2.20;;;0.90;99.90;;;;;;4932346;29;20210;-86
2021/12/25 05:45:24;;;;;;;4.27;2.00;;;0.90;99.90;;;;;;4943110;29;20209;-81
2021/12/25 05:47:50;;;;;;;3.60;2.00;;;0.80;99.90;;;;;;4950393;29;20595;-87
2021/12/25 05:50:17;;;;;;;3.73;1.80;;;0.80;99.90;;;;;;4944474;29;20209;-84
2021/12/25 05:52:44;;;;;;;5.13;1.43;;;0.70;99.90;;;;;;4931914;29;20237;-85
2021/12/25 05:55:11;;;;;;;4.43;2.33;;;0.70;99.90;;;;;;4933645;29;20237;-86
2021/12/25 05:57:39;;;;;;;3.73;1.90;;;0.70;99.90;;;;;;4934806;29;20213;-85
2021/12/25 06:00:08;;;;;;;3.83;1.73;;;0.60;99.90;;;;;;4933795;29;20610;-89
2021/12/25 06:02:36;;;;;;;3.83;2.00;;;0.60;99.90;;;;;;4931842;29;20209;-83
2021/12/25 06:05:04;;;;;;;2.57;1.67;;;0.60;99.90;;;;;;4931267;29;20321;-85
2021/12/25 06:07:31;;;;;;;5.33;2.00;;;0.50;99.90;;;;;;4932571;29;20248;-84
2021/12/25 06:09:58;;;;;;;3.10;2.00;;;0.50;99.90;;;;;;4934277;29;20198;-84
2021/12/25 06:12:25;;;;;;;4.67;2.13;;;0.50;99.90;;;;;;4934297;29;20213;-85
2021/12/25 06:14:54;;;;;;;3.70;1.77;;;0.40;99.90;;;;;;4946450;29;20243;-82
2021/12/25 06:17:21;;;;;;;3.00;1.63;;;0.40;99.90;;;;;;4944276;29;20826;-81
2021/12/25 06:19:48;;;;;;;3.60;1.90;;;0.30;99.90;;;;;;4929900;29;20210;-79
2021/12/25 06:22:15;;;;;;;3.27;1.60;;;0.30;99.90;;;;;;4944838;29;20213;-79
2021/12/25 06:24:43;;;;;;;6.07;1.77;;;0.30;99.90;;;;;;4947364;29;20208;-81
2021/12/25 06:27:10;;;;;;;3.73;1.50;;;0.30;99.90;;;;;;4948569;29;20228;-79
2021/12/25 06:29:37;;;;;;;2.00;1.40;;;0.20;99.90;;;;;;4938627;29;20212;-80
2021/12/25 06:32:06;;;;;;;5.60;1.67;;;0.20;99.90;;;;;;4928353;29;20237;-79
2021/12/25 06:34:33;;;;;;;3.83;1.87;;;0.20;99.90;;;;;;4930958;29;20245;-81
2021/12/25 06:37:00;;;;;;;2.07;1.50;;;0.20;99.90;;;;;;4948441;29;20194;-79
2021/12/25 06:39:27;;;;;;;3.23;1.50;;;0.20;99.90;;;;;;4948644;29;20818;-79
2021/12/25 06:41:54;;;;;;;6.40;2.97;;;0.20;99.90;;;;;;4947625;29;20217;-80
2021/12/25 06:44:23;;;;;;;2.50;1.87;;;0.10;99.90;;;;;;4948268;28;20221;-79
2021/12/25 06:46:50;;;;;;;4.30;1.60;;;0.10;99.90;;;;;;4939271;29;20205;-81
2021/12/25 06:49:19;;;;;;;1.83;1.20;;;0.10;99.90;;;;;;4929994;29;20886;-83
2021/12/25 06:51:46;;;;;;;4.93;1.50;;;0.10;99.90;;;;;;4936199;29;20202;-86
2021/12/25 06:54:12;;;;;;;2.00;1.13;;;0.10;99.90;;;;;;4953879;29;20229;-84
2021/12/25 06:56:40;;;;;;;3.93;2.13;;;0.10;99.90;;;;;;4952438;29;20217;-80
2021/12/25 06:59:07;;;;;;;1.50;1.30;;;0.00;99.90;;;;;;4944760;29;20349;-81
2021/12/25 07:01:35;;;;;;;3.23;1.40;;;0.00;99.90;;;;;;4932101;29;20198;-81
2021/12/25 07:04:01;;;;;;;5.70;1.23;;;0.00;99.90;;;;;;4931932;29;20220;-85
2021/12/25 07:06:29;;;;;;;1.93;1.17;;;-0.10;99.90;;;;;;4941596;29;20213;-79
2021/12/25 07:08:56;;;;;;;4.20;1.20;;;-0.10;99.90;;;;;;4951827;29;20204;-80
2021/12/25 07:11:23;;;;;;;3.43;1.13;;;-0.10;99.90;;;;;;4952243;29;20220;-81
2021/12/25 07:13:51;;;;;;;1.90;1.30;;;-0.10;99.90;;;;;;4947898;29;20210;-79
2021/12/25 07:16:19;;;;;;;1.43;1.10;;;-0.10;99.90;;;;;;4932946;29;20225;-82
2021/12/25 07:18:46;;;;;;;2.67;1.20;;;-0.20;99.90;;;;;;4933312;29;20614;-80
2021/12/25 07:21:13;;;;;;;4.47;1.40;;;-0.20;99.90;;;;;;4931610;29;20513;-80
2021/12/25 07:23:41;;;;;;;2.53;1.20;;;-0.20;99.90;;;;;;4932057;29;20206;-84
2021/12/25 07:26:08;;;;;;;2.43;0.90;;;-0.20;99.90;;;;;;4935473;29;20205;-85
2021/12/25 07:28:35;;;;;;;3.67;1.10;;;-0.20;99.90;;;;;;4935540;29;20210;-84
2021/12/25 07:31:02;;;;;;;3.10;1.00;;;-0.20;99.90;;;;;;4935376;29;20224;-82
2021/12/25 07:33:29;;;;;;;1.70;1.07;;;-0.20;99.90;;;;;;4934542;29;20202;-85
2021/12/25 07:35:57;;;;;;;6.03;1.87;;;-0.30;99.90;;;;;;4935890;29;20230;-83
2021/12/25 07:38:24;;;;;;;2.30;1.10;;;-0.30;99.90;;;;;;4946149;29;20220;-83
2021/12/25 07:40:53;;;;;;;1.07;0.90;;;-0.30;99.90;;;;;;4952847;29;20213;-83
2021/12/25 07:43:19;;;;;;;3.03;1.20;;;-0.40;99.90;;;;;;4935562;29;20237;-85
2021/12/25 07:45:48;;;;;;;1.83;1.27;;;-0.40;99.90;;;;;;4935195;29;20206;-84
2021/12/25 07:48:18;;;;;;;2.50;1.40;;;-0.40;99.90;;;;;;4931830;29;20206;-82
2021/12/25 07:50:45;;;;;;;1.87;1.07;;;-0.40;99.90;;;;;;4933322;29;20684;-81
2021/12/25 07:53:12;;;;;;;2.77;1.00;;;-0.40;99.90;;;;;;4933551;29;20480;-82
2021/12/25 07:55:39;;;;;;;1.30;1.20;;;-0.40;99.90;;;;;;4932763;29;20226;-82
2021/12/25 07:58:07;;;;;;;4.37;1.23;;;-0.40;99.90;;;;;;4932955;29;20199;-81
2021/12/25 08:00:34;;;;;;;1.40;1.20;;;-0.40;99.90;;;;;;4933648;29;20214;-84
2021/12/25 08:03:01;;;;;;;3.20;1.57;;;-0.30;99.90;;;;;;4930548;29;20221;-82
2021/12/25 08:05:29;;;;;;;2.80;1.20;;;-0.30;99.90;;;;;;4931121;29;20561;-83
2021/12/25 08:07:55;;;;;;;1.20;1.10;;;-0.30;99.90;;;;;;4938247;29;20609;-81
2021/12/25 08:10:22;;;;;;;4.20;1.70;;;-0.30;99.90;;;;;;4951385;29;20206;-82
2021/12/25 08:12:51;;;;;;;2.60;1.90;;;-0.30;99.90;;;;;;4953370;29;20205;-83
2021/12/25 08:15:21;;;;;;;4.33;1.43;;;-0.30;99.90;;;;;;4945882;29;20898;-81
2021/12/25 08:17:48;;;;;;;2.17;1.40;;;-0.30;99.90;;;;;;4932336;29;20209;-82
2021/12/25 08:20:15;;;;;;;1.20;1.10;;;-0.30;99.90;;;;;;4932023;29;20210;-80
2021/12/25 08:22:42;;;;;;;2.10;1.30;;;-0.30;99.90;;;;;;4932138;29;20295;-80
2021/12/25 08:25:11;;;;;;;1.27;1.10;;;-0.30;99.90;;;;;;4951215;29;20202;-82
2021/12/25 08:27:39;;;;;;;3.30;1.60;;;-0.30;99.90;;;;;;4943174;29;20295;-80
2021/12/25 08:30:10;;;;;;;1.20;1.03;;;-0.30;99.90;;;;;;4930527;29;20206;-81
2021/12/25 08:32:39;;;;;;;2.87;1.30;;;-0.30;99.90;;;;;;4931973;29;20730;-80
2021/12/25 08:35:06;;;;;;;1.80;1.17;;;-0.30;99.90;;;;;;4930320;29;20237;-80
2021/12/25 08:41:07;;;;;;;2.63;0.90;;;-0.20;99.90;;;;;;4877091;29;20217;-84
2021/12/25 08:43:36;;;;;;;3.73;1.13;;;-0.20;99.90;;;;;;4930384;29;20218;-79
2021/12/25 08:46:13;;;;;;;3.10;1.10;;;-0.20;99.90;;;;;;4930816;29;20209;-80
2021/12/25 08:48:41;;;;;;;1.43;0.97;;;-0.20;99.90;;;;;;4930704;29;20821;-81
2021/12/25 08:51:08;;;;;;;1.97;0.90;;;-0.20;99.90;;;;;;4930214;29;20224;-79
2021/12/25 08:53:35;;;;;;;1.50;1.00;;;-0.20;99.90;;;;;;4929887;29;20934;-81
2021/12/25 08:56:03;;;;;;;1.80;1.00;;;-0.10;99.90;;;;;;4910967;29;20245;-82
2021/12/25 08:58:31;;;;;;;2.10;0.90;;;-0.10;99.90;;;;;;4930075;29;20225;-80
2021/12/25 09:01:01;;;;;;;4.27;1.30;;;-0.10;99.90;;;;;;4930793;29;20206;-80
2021/12/25 09:03:29;;;;;;;1.60;1.10;;;-0.10;99.90;;;;;;4928944;29;20515;-83
2021/12/25 09:05:59;;;;;;;0.97;0.80;;;-0.10;99.90;;;;;;4933858;29;20520;-81
2021/12/25 09:08:26;;;;;;;1.73;1.13;;;-0.10;99.90;;;;;;4950202;29;20201;-84
2021/12/25 09:10:54;;;;;;;2.73;1.00;;;-0.10;99.90;;;;;;4949521;29;20205;-83
2021/12/25 09:13:22;;;;;;;1.67;1.00;;;-0.10;99.90;;;;;;4950608;28;20300;-81
2021/12/25 09:15:49;;;;;;;2.57;0.70;;;-0.10;99.90;;;;;;4950007;29;20225;-81
2021/12/25 09:18:15;;;;;;;3.83;1.30;;;-0.10;99.90;;;;;;4949947;29;20213;-81
2021/12/25 09:20:43;;;;;;;1.23;1.00;;;-0.10;99.90;;;;;;4949360;29;20201;-84
2021/12/25 09:23:11;;;;;;;1.30;0.97;;;-0.10;99.90;;;;;;4949921;29;20213;-82
2021/12/25 09:25:38;;;;;;;2.80;1.53;;;-0.10;99.90;;;;;;4934737;29;20210;-80
2021/12/25 09:28:05;;;;;;;21.33;6.87;;;0.00;99.90;;;;;;4930361;29;20221;-82
2021/12/25 09:30:32;;;;;;;2.30;1.67;;;0.00;99.90;;;;;;4930581;29;20202;-81
2021/12/25 09:32:59;;;;;;;1.77;0.90;;;0.00;99.90;;;;;;4928731;29;20288;-80
2021/12/25 09:35:25;;;;;;;4.90;1.07;;;0.00;99.90;;;;;;4929675;29;20359;-80
2021/12/25 09:37:52;;;;;;;29.77;9.33;;;0.00;99.90;;;;;;4930016;29;20217;-80
2021/12/25 09:40:20;;;;;;;4.03;1.17;;;0.00;99.90;;;;;;4929150;29;20205;-81
2021/12/25 09:42:48;;;;;;;8.37;3.43;;;0.00;99.90;;;;;;4929364;29;20232;-80
2021/12/25 09:45:15;;;;;;;3.30;1.40;;;0.00;99.90;;;;;;4948343;29;20536;-79
2021/12/25 09:47:43;;;;;;;8.07;3.33;;;0.00;99.90;;;;;;4945721;29;20224;-79
2021/12/25 09:50:11;;;;;;;12.30;3.70;;;0.10;99.90;;;;;;4929542;29;20202;-82
2021/12/25 09:52:38;;;;;;;5.30;1.60;;;0.10;99.90;;;;;;4929185;29;20202;-80
2021/12/25 09:55:06;;;;;;;2.13;0.90;;;0.10;99.90;;;;;;4928962;29;20220;-79
2021/12/25 09:57:34;;;;;;;1.50;0.73;;;0.10;99.90;;;;;;4928795;29;20202;-79
2021/12/25 10:00:07;;;;;;;0.87;0.80;;;0.10;99.90;;;;;;4934819;29;20217;-80
2021/12/25 10:02:45;;;;;;;1.83;0.80;;;0.10;99.90;;;;;;4928960;29;20198;-80
2021/12/25 10:05:12;;;;;;;2.90;0.87;;;0.10;99.90;;;;;;4929911;29;20212;-80
2021/12/25 10:07:40;;;;;;;1.10;0.70;;;0.10;99.90;;;;;;4929384;29;20988;-80
2021/12/25 10:10:11;;;;;;;2.53;1.37;;;0.10;99.90;;;;;;4929563;29;20214;-79
2021/12/25 10:12:43;;;;;;;1.57;1.03;;;0.10;99.90;;;;;;4929425;29;20229;-80
2021/12/25 10:15:13;;;;;;;1.73;0.80;;;0.10;99.90;;;;;;4929304;29;20615;-80
2021/12/25 10:17:46;;;;;;;2.10;1.07;;;0.10;99.90;;;;;;4933515;29;20980;-79
2021/12/25 10:20:15;;;;;;;2.63;1.10;;;0.20;99.90;;;;;;4948867;29;20201;-79
2021/12/25 10:23:07;;;;;;;2.23;1.00;;;0.20;99.90;;;;;;4947447;29;20197;-80
2021/12/25 10:25:43;;;;;;;1.60;1.10;;;0.20;99.90;;;;;;4928359;29;20234;-79
2021/12/25 10:28:12;;;;;;;3.50;1.60;;;0.20;99.90;;;;;;4928194;29;20209;-80
2021/12/25 10:30:48;;;;;;;5.77;1.00;;;0.30;99.90;;;;;;4927999;29;20209;-79
2021/12/25 10:33:34;;;;;;;6.23;3.00;;;0.30;99.90;;;;;;4929199;29;20237;-81
2021/12/25 10:36:05;;;;;;;4.43;1.10;;;0.30;99.90;;;;;;4928217;29;20225;-79
2021/12/25 10:38:32;;;;;;;2.57;1.27;;;0.30;99.90;;;;;;4927724;29;20218;-78
2021/12/25 10:41:17;;;;;;;1.40;0.83;;;0.30;99.90;;;;;;4928207;29;20209;-78
2021/12/25 10:43:47;;;;;;;1.03;0.80;;;0.30;99.90;;;;;;4926659;29;20748;-78
2021/12/25 10:46:14;;;;;;;0.97;0.70;;;0.40;99.90;;;;;;4943402;29;20205;-78
2021/12/25 10:48:41;;;;;;;3.67;1.20;;;0.40;99.90;;;;;;4947362;29;20213;-79
2021/12/25 10:51:27;;;;;;;2.67;0.90;;;0.40;99.90;;;;;;4938079;29;20209;-78
2021/12/25 10:53:55;;;;;;;4.13;1.30;;;0.50;99.90;;;;;;4928004;29;20214;-78
2021/12/25 10:56:23;;;;;;;1.63;1.20;;;0.50;99.90;;;;;;4927788;29;20241;-78
2021/12/25 10:59:02;;;;;;;2.43;1.43;;;0.50;99.90;;;;;;4928174;29;20313;-78
2021/12/25 11:01:36;;;;;;;3.40;1.70;;;0.50;99.90;;;;;;4927541;29;20217;-79
2021/12/25 11:04:04;;;;;;;2.40;1.37;;;0.50;99.90;;;;;;4927641;29;20288;-79
2021/12/25 11:06:31;;;;;;;5.63;2.13;;;0.50;99.90;;;;;;4927451;29;20202;-79
2021/12/25 11:08:59;;;;;;;2.93;1.93;;;0.60;99.90;;;;;;4927598;29;20210;-78
2021/12/25 11:11:26;;;;;;;3.83;1.60;;;0.50;99.90;;;;;;4927721;29;20210;-78
2021/12/25 11:13:55;;;;;;;4.93;2.13;;;0.50;99.90;;;;;;4927991;29;20202;-79
2021/12/25 11:16:27;;;;;;;15.67;8.07;;;0.50;99.90;;;;;;4927617;29;20240;-79
2021/12/25 11:19:04;;;;;;;6.07;2.77;;;0.50;99.90;;;;;;4927858;29;20202;-79
2021/12/25 11:21:34;;;;;;;5.03;2.00;;;0.60;99.90;;;;;;4935009;29;20224;-78
2021/12/25 11:24:09;;;;;;;8.13;2.70;;;0.60;99.90;;;;;;4936385;29;20221;-79
2021/12/25 11:26:37;;;;;;;7.00;2.87;;;0.60;99.90;;;;;;4936247;29;20209;-79
2021/12/25 11:29:07;;;;;;;6.37;2.70;;;0.60;99.90;;;;;;4936255;29;20217;-80
2021/12/25 11:31:33;;;;;;;8.50;3.30;;;0.70;99.90;;;;;;4938349;29;20300;-79
2021/12/25 11:34:00;;;;;;;16.77;6.33;;;0.70;99.90;;;;;;4922033;29;20252;-81
2021/12/25 11:36:27;;;;;;;8.87;3.67;;;0.70;99.90;;;;;;4938062;29;20248;-78
2021/12/25 11:38:54;;;;;;;10.90;4.40;;;0.80;99.90;;;;;;4941027;29;20212;-80
2021/12/25 11:41:26;;;;;;;13.60;4.10;;;0.80;99.90;;;;;;4940702;29;20210;-82
2021/12/25 11:43:54;;;;;;;13.43;5.30;;;0.90;99.90;;;;;;4942252;29;20488;-83
2021/12/25 11:46:35;;;;;;;11.17;4.13;;;0.90;99.90;;;;;;4926895;29;20289;-81
2021/12/25 11:49:06;;;;;;;8.57;3.47;;;0.90;99.90;;;;;;4940509;29;20201;-81
2021/12/25 11:51:33;;;;;;;7.20;3.03;;;0.90;99.90;;;;;;4940721;29;20216;-81
2021/12/25 11:54:15;;;;;;;11.50;3.37;;;0.90;99.90;;;;;;4938690;29;20532;-79
2021/12/25 11:57:03;;;;;;;8.63;2.70;;;0.90;99.90;;;;;;4931848;29;20222;-81
2021/12/25 11:59:44;;;;;;;21.20;7.00;;;0.90;99.90;;;;;;4931859;29;20206;-83
2021/12/25 12:02:32;;;;;;;6.77;2.90;;;1.00;99.90;;;;;;4935779;29;20304;-82
2021/12/25 12:05:19;;;;;;;4.80;2.10;;;1.00;99.90;;;;;;4934401;29;20206;-83
2021/12/25 12:07:57;;;;;;;4.93;2.20;;;1.00;99.90;;;;;;4931955;29;20958;-80
2021/12/25 12:10:50;;;;;;;9.23;3.97;;;1.00;99.90;;;;;;4930698;29;20201;-82
2021/12/25 12:13:19;;;;;;;4.83;1.90;;;1.00;99.90;;;;;;4930322;29;20218;-81
2021/12/25 12:15:48;;;;;;;12.50;4.33;;;0.90;99.90;;;;;;4930354;29;20202;-80
2021/12/25 12:18:38;;;;;;;10.90;2.90;;;0.90;99.90;;;;;;4931234;29;20229;-80
2021/12/25 12:21:33;;;;;;;8.83;3.17;;;1.00;99.90;;;;;;4931615;29;20305;-81
2021/12/25 12:24:27;;;;;;;4.50;2.03;;;1.00;99.90;;;;;;4930924;29;20296;-80
2021/12/25 12:26:55;;;;;;;5.50;2.50;;;1.00;99.90;;;;;;4931194;29;20204;-80
2021/12/25 12:29:49;;;;;;;5.23;2.27;;;1.00;99.90;;;;;;4930465;29;20701;-81
2021/12/25 12:32:32;;;;;;;6.60;2.73;;;1.00;99.90;;;;;;4931354;29;20453;-81
2021/12/25 12:35:01;;;;;;;6.30;2.20;;;1.00;99.90;;;;;;4929700;29;20214;-81
2021/12/25 12:37:29;;;;;;;4.53;1.87;;;1.00;99.90;;;;;;4930683;29;20230;-80
2021/12/25 12:40:20;;;;;;;1.77;1.20;;;1.10;99.90;;;;;;4930697;29;20535;-80
2021/12/25 12:42:53;;;;;;;3.23;1.27;;;1.10;99.90;;;;;;4931180;29;20210;-81
2021/12/25 12:45:24;;;;;;;3.50;1.20;;;1.10;99.90;;;;;;4931060;29;20206;-80
2021/12/25 12:48:24;;;;;;;3.00;1.10;;;1.10;99.90;;;;;;4930284;29;20486;-80
2021/12/25 12:50:53;;;;;;;6.67;1.10;;;1.10;99.90;;;;;;4889115;29;20230;-81
2021/12/25 12:53:22;;;;;;;1.07;0.80;;;1.10;99.90;;;;;;4895724;29;20218;-79
2021/12/25 12:55:52;;;;;;;2.30;0.77;;;1.10;99.90;;;;;;4927134;29;20208;-80
2021/12/25 12:58:22;;;;;;;4.03;1.57;;;1.00;99.90;;;;;;4948122;29;20209;-80
2021/12/25 13:00:52;;;;;;;3.60;1.97;;;1.00;99.90;;;;;;4935101;29;20221;-81
2021/12/25 13:03:19;;;;;;;97.70;25.63;;;0.90;99.90;;;;;;4930553;29;20209;-81
2021/12/25 13:05:51;;;;;;;46.50;13.00;;;0.90;99.90;;;;;;4929346;29;20265;-79
2021/12/25 13:08:21;;;;;;;8.97;2.97;;;0.90;99.90;;;;;;4930086;29;20206;-78
2021/12/25 13:10:51;;;;;;;12.37;4.43;;;0.90;99.90;;;;;;4929251;29;20202;-78
2021/12/25 13:13:21;;;;;;;1.73;1.03;;;0.80;99.90;;;;;;4928728;29;20223;-79
2021/12/25 13:15:55;;;;;;;1.13;0.70;;;0.80;99.90;;;;;;4929088;29;20210;-78
2021/12/25 13:18:28;;;;;;;10.30;4.23;;;0.80;99.90;;;;;;4928527;29;20210;-78
2021/12/25 13:20:55;;;;;;;2.33;1.90;;;0.80;99.90;;;;;;4928648;29;20218;-77
2021/12/25 13:23:25;;;;;;;12.03;4.30;;;0.70;99.90;;;;;;4928473;29;20214;-77
2021/12/25 13:25:57;;;;;;;9.60;3.40;;;0.70;99.90;;;;;;4928989;29;20209;-79
2021/12/25 13:28:25;;;;;;;27.83;7.90;;;0.70;99.90;;;;;;4928521;29;20195;-78
2021/12/25 13:30:57;;;;;;;3.23;1.00;;;0.70;99.90;;;;;;4928298;29;20506;-78
2021/12/25 13:33:26;;;;;;;5.00;2.70;;;0.80;99.90;;;;;;4927668;29;20206;-78
2021/12/25 13:36:03;;;;;;;0.90;0.73;;;0.80;99.90;;;;;;4928517;29;20206;-77
2021/12/25 13:38:44;;;;;;;1.67;1.00;;;0.80;99.90;;;;;;4929000;29;20208;-76
2021/12/25 13:41:10;;;;;;;1.93;0.90;;;0.80;99.90;;;;;;4928271;29;20787;-77
2021/12/25 13:43:37;;;;;;;3.77;2.20;;;0.80;99.90;;;;;;4928706;29;20240;-78
2021/12/25 13:46:04;;;;;;;1.63;0.93;;;0.80;99.90;;;;;;4942999;29;20499;-78
2021/12/25 13:48:38;;;;;;;4.73;1.47;;;0.80;99.90;;;;;;4940866;29;20202;-78
2021/12/25 13:51:05;;;;;;;4.97;1.33;;;0.80;99.90;;;;;;4928341;29;20308;-78
2021/12/25 13:53:33;;;;;;;2.03;1.20;;;0.90;99.90;;;;;;4927737;29;20194;-78
2021/12/25 13:56:08;;;;;;;3.57;1.70;;;0.80;99.90;;;;;;4928560;29;20210;-77
2021/12/25 13:58:35;;;;;;;1.57;1.23;;;0.80;99.90;;;;;;4928088;29;20308;-76